Time;durP1;ratioP1;P1;durP2;ratioP2;P2;SDS_P1;SDS_P2;PMS_P1;PMS_P2;Temp;Humidity;BMP_temperature;BMP_pressure;BME280_temperature;BME280_humidity;BME280_pressure;Samples;Min_cycle;Max_cycle;Signal;HPM_P1;HPM_P2
2022/02/16 00:01:42;;;;;;;;;;;;;;;9.82;59.72;99674.56;4347019;33;20245;-87
2022/02/16 00:04:07;;;;;;;;;;;;;;;9.75;59.72;99673.06;4333339;33;20020;-88
2022/02/16 00:06:32;;;;;;;;;;;;;;;9.65;59.72;99672.44;4346920;33;19991;-87
2022/02/16 00:08:57;;;;;;;;;;;;;;;9.90;59.73;99666.50;4333334;33;20006;-87
2022/02/16 00:11:23;;;;;;;;;;;;;;;10.09;59.75;99662.47;4332227;33;20464;-87
2022/02/16 00:13:48;;;;;;;;;;;;;;;9.90;59.73;99656.13;4332887;33;19983;-87
2022/02/16 00:16:13;;;;;;;;;;;;;;;9.97;59.73;99655.91;4332668;33;22821;-86
2022/02/16 00:18:38;;;;;;;;;;;;;;;9.90;59.73;99661.31;4333088;33;19983;-87
2022/02/16 00:21:04;;;;;;;;;;;;;;;10.00;59.74;99660.16;4333064;33;20329;-87
2022/02/16 00:23:29;;;;;;;;;;;;;;;9.70;59.72;99664.50;4333537;33;20286;-92
2022/02/16 00:25:55;;;;;;;;;;;;;;;9.71;59.71;99671.44;4333561;33;20014;-89
2022/02/16 00:28:21;;;;;;;;;;;;;;;9.77;59.72;99656.50;4334223;33;20736;-90
2022/02/16 00:30:46;;;;;;;;;;;;;;;9.82;59.73;99653.75;4334022;33;19991;-92
2022/02/16 00:33:11;;;;;;;;;;;;;;;9.70;59.72;99665.41;4333017;33;21440;-89
2022/02/16 00:35:38;;;;;;;;;;;;;;;9.75;59.73;99660.06;4333404;33;20554;-91
2022/02/16 00:38:03;;;;;;;;;;;;;;;9.67;59.72;99669.81;4333723;33;20018;-90
2022/02/16 00:40:29;;;;;;;;;;;;;;;9.69;59.72;99665.41;4333637;33;24211;-92
2022/02/16 00:42:54;;;;;;;;;;;;;;;9.45;59.71;99667.84;4333927;33;20274;-92
2022/02/16 00:45:19;;;;;;;;;;;;;;;9.51;59.71;99665.06;4333763;33;20011;-88
2022/02/16 00:47:44;;;;;;;;;;;;;;;9.49;59.72;99653.88;4332853;33;20289;-88
2022/02/16 00:50:10;;;;;;;;;;;;;;;9.72;59.72;99635.00;4332800;33;20022;-88
2022/02/16 00:52:35;;;;;;;;;;;;;;;9.81;59.73;99633.88;4332794;33;20017;-87
2022/02/16 00:55:01;;;;;;;;;;;;;;;9.83;59.72;99629.47;4332916;33;20368;-88
2022/02/16 00:57:26;;;;;;;;;;;;;;;9.48;59.71;99630.53;4346521;33;20755;-89
2022/02/16 00:59:51;;;;;;;;;;;;;;;9.50;59.71;99618.34;4332815;33;20005;-89
2022/02/16 01:02:16;;;;;;;;;;;;;;;9.63;59.71;99611.87;4332888;33;20007;-89
2022/02/16 01:04:42;;;;;;;;;;;;;;;9.74;59.73;99595.97;4333524;33;20038;-92
2022/02/16 01:07:08;;;;;;;;;;;;;;;9.72;59.73;99595.16;4333927;33;19997;-90
2022/02/16 01:09:33;;;;;;;;;;;;;;;9.45;59.70;99604.63;4333314;33;20337;-91
2022/02/16 01:11:58;;;;;;;;;;;;;;;9.48;59.71;99608.00;4332718;33;20038;-89
2022/02/16 01:14:23;;;;;;;;;;;;;;;9.50;59.71;99613.16;4332061;33;20030;-89
2022/02/16 01:16:48;;;;;;;;;;;;;;;9.70;59.71;99608.22;4332553;33;20023;-90
2022/02/16 01:19:14;;;;;;;;;;;;;;;9.74;59.72;99617.63;4332682;33;20329;-90
2022/02/16 01:21:39;;;;;;;;;;;;;;;9.78;59.72;99610.56;4332676;33;20017;-90
2022/02/16 01:24:04;;;;;;;;;;;;;;;9.71;59.71;99604.72;4334185;33;19995;-90
2022/02/16 01:26:30;;;;;;;;;;;;;;;9.65;59.72;99606.63;4334708;33;20013;-90
2022/02/16 01:28:55;;;;;;;;;;;;;;;9.28;59.70;99604.28;4334708;33;20043;-90
2022/02/16 01:31:20;;;;;;;;;;;;;;;9.35;59.71;99598.88;4334673;33;20094;-89
2022/02/16 01:33:45;;;;;;;;;;;;;;;9.55;59.71;99598.28;4334877;33;20047;-89
2022/02/16 01:36:11;;;;;;;;;;;;;;;9.60;59.71;99590.34;4334953;33;20489;-89
2022/02/16 01:38:36;;;;;;;;;;;;;;;9.48;59.71;99596.78;4334833;33;20341;-90
2022/02/16 01:41:02;;;;;;;;;;;;;;;9.41;59.70;99587.44;4334806;33;19991;-90
2022/02/16 01:43:27;;;;;;;;;;;;;;;9.36;59.70;99589.31;4334913;33;19999;-89
2022/02/16 01:45:52;;;;;;;;;;;;;;;9.39;59.70;99594.44;4334486;33;19979;-90
2022/02/16 01:48:17;;;;;;;;;;;;;;;9.41;59.70;99605.63;4334106;32;25972;-89
2022/02/16 01:50:43;;;;;;;;;;;;;;;9.49;59.71;99609.72;4334480;33;20516;-87
2022/02/16 01:53:08;;;;;;;;;;;;;;;9.48;59.70;99605.41;4334529;33;19991;-88
2022/02/16 01:55:33;;;;;;;;;;;;;;;9.57;59.71;99601.69;4334120;33;20033;-88
2022/02/16 01:58:02;;;;;;;;;;;;;;;9.34;59.70;99598.91;4334294;33;20006;-88
2022/02/16 02:00:27;;;;;;;;;;;;;;;9.25;59.69;99592.25;4334435;33;20008;-88
2022/02/16 02:02:52;;;;;;;;;;;;;;;9.37;59.70;99597.06;4347122;33;27393;-88
2022/02/16 02:05:18;;;;;;;;;;;;;;;9.35;59.71;99590.22;4334348;33;20003;-88
2022/02/16 02:07:43;;;;;;;;;;;;;;;9.25;59.69;99594.84;4347257;33;27031;-87
2022/02/16 02:10:11;;;;;;;;;;;;;;;9.21;59.69;99582.81;4334170;33;20320;-88
2022/02/16 02:12:43;;;;;;;;;;;;;;;9.14;59.69;99586.50;4334136;33;19999;-87
2022/02/16 02:15:09;;;;;;;;;;;;;;;9.36;59.71;99579.78;4333856;33;19975;-88
2022/02/16 02:17:34;;;;;;;;;;;;;;;9.34;59.71;99576.38;4347848;33;20013;-87
2022/02/16 02:20:00;;;;;;;;;;;;;;;9.25;59.69;99579.25;4334052;33;20007;-87
2022/02/16 02:22:25;;;;;;;;;;;;;;;9.35;59.70;99583.28;4334521;33;20022;-90
2022/02/16 02:24:50;;;;;;;;;;;;;;;9.40;59.70;99576.19;4334463;33;20037;-90
2022/02/16 02:27:17;;;;;;;;;;;;;;;9.46;59.70;99575.16;4334601;33;20042;-88
2022/02/16 02:29:42;;;;;;;;;;;;;;;9.37;59.70;99568.50;4334363;33;20002;-88
2022/02/16 02:32:07;;;;;;;;;;;;;;;9.31;59.70;99563.50;4334472;33;19999;-90
2022/02/16 02:34:33;;;;;;;;;;;;;;;9.44;59.70;99574.34;4333002;33;24879;-89
2022/02/16 02:36:58;;;;;;;;;;;;;;;9.33;59.69;99573.84;4333955;33;22332;-89
2022/02/16 02:39:23;;;;;;;;;;;;;;;9.40;59.70;99571.00;4333967;33;19995;-91
2022/02/16 02:41:48;;;;;;;;;;;;;;;9.32;59.69;99575.59;4335329;33;19991;-91
2022/02/16 02:44:13;;;;;;;;;;;;;;;9.27;59.70;99574.03;4335233;33;20313;-91
2022/02/16 02:46:39;;;;;;;;;;;;;;;9.37;59.70;99578.88;4335215;33;19998;-90
2022/02/16 02:49:04;;;;;;;;;;;;;;;9.35;59.70;99574.63;4334088;33;29397;-90
2022/02/16 02:51:29;;;;;;;;;;;;;;;9.38;59.70;99580.59;4334281;33;26608;-90
2022/02/16 02:53:54;;;;;;;;;;;;;;;9.25;59.69;99584.47;4333680;33;24130;-89
2022/02/16 02:56:20;;;;;;;;;;;;;;;9.30;59.70;99579.97;4334238;33;20017;-89
2022/02/16 02:58:45;;;;;;;;;;;;;;;9.04;59.68;99587.66;4334092;33;19987;-89
2022/02/16 03:01:10;;;;;;;;;;;;;;;9.17;59.69;99583.81;4333570;33;26804;-89
2022/02/16 03:03:35;;;;;;;;;;;;;;;9.08;59.68;99584.09;4333950;33;20005;-89
2022/02/16 03:06:01;;;;;;;;;;;;;;;9.21;59.69;99585.41;4333926;33;20435;-89
2022/02/16 03:08:26;;;;;;;;;;;;;;;9.20;59.69;99588.91;4333897;33;20270;-87
2022/02/16 03:10:52;;;;;;;;;;;;;;;9.10;59.69;99587.47;4346879;33;28424;-87
2022/02/16 03:13:20;;;;;;;;;;;;;;;9.35;59.70;99574.63;4333949;33;20034;-88
2022/02/16 03:15:49;;;;;;;;;;;;;;;9.03;59.68;99576.44;4334361;33;19975;-88
2022/02/16 03:18:14;;;;;;;;;;;;;;;8.99;59.68;99577.41;4334003;33;19991;-87
2022/02/16 03:20:40;;;;;;;;;;;;;;;9.02;59.68;99573.87;4333993;33;20006;-87
2022/02/16 03:23:05;;;;;;;;;;;;;;;8.93;59.67;99577.56;4333855;33;19987;-88
2022/02/16 03:25:30;;;;;;;;;;;;;;;9.39;59.70;99579.69;4333162;33;26576;-88
2022/02/16 03:27:56;;;;;;;;;;;;;;;9.36;59.71;99584.97;4333623;33;20383;-88
2022/02/16 03:30:21;;;;;;;;;;;;;;;9.34;59.70;99580.72;4346788;33;25456;-88
2022/02/16 03:32:46;;;;;;;;;;;;;;;9.28;59.70;99578.31;4347243;33;19983;-87
2022/02/16 03:35:11;;;;;;;;;;;;;;;9.27;59.70;99571.44;4346685;33;29958;-87
2022/02/16 03:37:37;;;;;;;;;;;;;;;9.32;59.69;99578.19;4333568;33;20270;-87
2022/02/16 03:40:03;;;;;;;;;;;;;;;9.25;59.69;99574.06;4333612;33;20049;-87
2022/02/16 03:42:28;;;;;;;;;;;;;;;9.09;59.68;99578.00;4333629;33;20266;-88
2022/02/16 03:44:53;;;;;;;;;;;;;;;9.26;59.70;99575.78;4333164;33;21586;-86
2022/02/16 03:47:18;;;;;;;;;;;;;;;9.33;59.69;99573.84;4346507;33;25754;-87
2022/02/16 03:49:43;;;;;;;;;;;;;;;9.13;59.69;99570.06;4346820;33;20038;-87
2022/02/16 03:52:09;;;;;;;;;;;;;;;9.15;59.69;99576.06;4333427;33;20018;-87
2022/02/16 03:54:34;;;;;;;;;;;;;;;9.07;59.68;99577.19;4332843;33;29792;-88
2022/02/16 03:56:59;;;;;;;;;;;;;;;9.03;59.68;99581.63;4333286;33;20314;-88
2022/02/16 03:59:24;;;;;;;;;;;;;;;9.13;59.68;99590.00;4332735;33;32835;-87
2022/02/16 04:01:49;;;;;;;;;;;;;;;9.15;59.69;99593.38;4333703;33;20283;-87
2022/02/16 04:04:15;;;;;;;;;;;;;;;9.06;59.68;99597.13;4332758;33;31226;-88
2022/02/16 04:06:40;;;;;;;;;;;;;;;9.09;59.69;99601.38;4333561;33;20014;-87
2022/02/16 04:09:05;;;;;;;;;;;;;;;9.23;59.69;99597.50;4333257;33;20011;-88
2022/02/16 04:11:30;;;;;;;;;;;;;;;9.07;59.68;99598.81;4347050;33;20038;-87
2022/02/16 04:13:56;;;;;;;;;;;;;;;9.08;59.69;99603.13;4333147;33;19998;-88
2022/02/16 04:16:21;;;;;;;;;;;;;;;9.07;59.68;99603.16;4332737;33;25529;-88
2022/02/16 04:18:46;;;;;;;;;;;;;;;9.05;59.68;99603.19;4333431;33;20000;-87
2022/02/16 04:21:12;;;;;;;;;;;;;;;9.15;59.69;99606.38;4333104;33;19994;-85
2022/02/16 04:23:37;;;;;;;;;;;;;;;9.04;59.69;99601.50;4333220;33;20026;-85
2022/02/16 04:26:02;;;;;;;;;;;;;;;9.02;59.68;99605.88;4332449;33;32149;-85
2022/02/16 04:28:27;;;;;;;;;;;;;;;9.07;59.68;99600.56;4333071;33;19991;-85
2022/02/16 04:30:53;;;;;;;;;;;;;;;9.03;59.68;99605.00;4332564;33;21715;-85
2022/02/16 04:33:18;;;;;;;;;;;;;;;8.88;59.67;99600.22;4333034;33;19991;-85
2022/02/16 04:35:44;;;;;;;;;;;;;;;8.90;59.68;99594.09;4346588;33;20354;-85
2022/02/16 04:38:09;;;;;;;;;;;;;;;8.64;59.66;99600.88;4332536;33;21797;-87
2022/02/16 04:40:35;;;;;;;;;;;;;;;8.66;59.67;99605.13;4332832;33;19983;-86
2022/02/16 04:43:03;;;;;;;;;;;;;;;8.91;59.68;99600.97;4345080;33;20014;-85
2022/02/16 04:45:29;;;;;;;;;;;;;;;8.73;59.66;99611.00;4333376;33;20039;-86
2022/02/16 04:47:54;;;;;;;;;;;;;;;8.87;59.67;99598.50;4333021;33;20022;-86
2022/02/16 04:50:19;;;;;;;;;;;;;;;8.84;59.67;99612.44;4332807;33;19995;-85
2022/02/16 04:52:45;;;;;;;;;;;;;;;8.78;59.67;99615.19;4332898;33;20047;-86
2022/02/16 04:55:11;;;;;;;;;;;;;;;8.84;59.67;99616.78;4332690;33;20018;-86
2022/02/16 04:57:36;;;;;;;;;;;;;;;8.71;59.66;99611.03;4333040;33;20054;-86
2022/02/16 05:00:02;;;;;;;;;;;;;;;8.93;59.67;99613.91;4348208;33;20360;-86
2022/02/16 05:02:28;;;;;;;;;;;;;;;8.78;59.67;99615.19;4348279;33;19987;-85
2022/02/16 05:04:53;;;;;;;;;;;;;;;8.74;59.66;99610.09;4348319;33;20054;-86
2022/02/16 05:07:18;;;;;;;;;;;;;;;8.69;59.66;99612.81;4334696;33;19998;-87
2022/02/16 05:09:44;;;;;;;;;;;;;;;8.72;59.66;99615.34;4322290;33;20003;-87
2022/02/16 05:12:09;;;;;;;;;;;;;;;8.79;59.66;99609.12;4334283;33;20286;-85
2022/02/16 05:14:34;;;;;;;;;;;;;;;8.71;59.66;99608.44;4348024;33;20031;-85
2022/02/16 05:16:59;;;;;;;;;;;;;;;8.84;59.67;99612.44;4346873;32;20369;-85
2022/02/16 05:19:25;;;;;;;;;;;;;;;8.71;59.66;99605.84;4334071;33;23256;-86
2022/02/16 05:21:50;;;;;;;;;;;;;;;8.74;59.66;99602.31;4334656;33;20341;-86
2022/02/16 05:24:15;;;;;;;;;;;;;;;8.80;59.66;99595.25;4334237;33;20014;-85
2022/02/16 05:26:40;;;;;;;;;;;;;;;9.09;59.68;99591.81;4334540;33;20041;-85
2022/02/16 05:29:06;;;;;;;;;;;;;;;9.12;59.69;99594.34;4334508;33;19980;-88
2022/02/16 05:31:32;;;;;;;;;;;;;;;9.15;59.69;99596.00;4348112;33;19979;-86
2022/02/16 05:33:57;;;;;;;;;;;;;;;8.97;59.67;99599.09;4347412;33;28199;-86
2022/02/16 05:36:22;;;;;;;;;;;;;;;8.82;59.67;99601.25;4346387;33;20015;-86
2022/02/16 05:38:47;;;;;;;;;;;;;;;8.88;59.67;99608.84;4347441;33;25735;-87
2022/02/16 05:41:13;;;;;;;;;;;;;;;8.83;59.67;99610.72;4334304;33;19980;-86
2022/02/16 05:43:38;;;;;;;;;;;;;;;8.71;59.66;99612.78;4334049;33;19999;-87
2022/02/16 05:46:03;;;;;;;;;;;;;;;8.86;59.67;99617.56;4334329;33;19995;-88
2022/02/16 05:48:29;;;;;;;;;;;;;;;8.87;59.67;99616.69;4334114;33;19999;-87
2022/02/16 05:50:55;;;;;;;;;;;;;;;8.77;59.67;99617.84;4334301;33;20006;-86
2022/02/16 05:53:20;;;;;;;;;;;;;;;8.77;59.67;99612.66;4321748;33;20341;-86
2022/02/16 05:55:45;;;;;;;;;;;;;;;8.86;59.67;99617.56;4334244;33;20011;-87
2022/02/16 05:58:10;;;;;;;;;;;;;;;8.86;59.67;99610.63;4346360;33;28391;-86
2022/02/16 06:00:36;;;;;;;;;;;;;;;8.98;59.68;99613.78;4347061;33;28466;-86
2022/02/16 06:03:01;;;;;;;;;;;;;;;8.83;59.67;99621.09;4334260;33;20026;-86
2022/02/16 06:05:26;;;;;;;;;;;;;;;8.89;59.68;99620.94;4322365;33;19991;-86
2022/02/16 06:07:51;;;;;;;;;;;;;;;8.78;59.67;99617.78;4334421;33;20002;-86
2022/02/16 06:10:17;;;;;;;;;;;;;;;8.79;59.67;99618.66;4346252;33;31507;-86
2022/02/16 06:12:42;;;;;;;;;;;;;;;8.83;59.67;99620.25;4333842;33;20019;-86
2022/02/16 06:15:08;;;;;;;;;;;;;;;8.80;59.66;99613.41;4334169;33;20329;-87
2022/02/16 06:17:33;;;;;;;;;;;;;;;8.84;59.67;99617.63;4334094;33;20032;-87
2022/02/16 06:19:59;;;;;;;;;;;;;;;8.82;59.67;99623.75;4347871;33;20305;-87
2022/02/16 06:22:24;;;;;;;;;;;;;;;8.85;59.67;99624.50;4334111;33;20063;-86
2022/02/16 06:24:49;;;;;;;;;;;;;;;8.86;59.67;99621.03;4347079;33;27983;-87
2022/02/16 06:27:14;;;;;;;;;;;;;;;8.76;59.67;99621.31;4333160;33;23758;-86
2022/02/16 06:29:39;;;;;;;;;;;;;;;8.74;59.67;99626.53;4333786;33;20377;-86
2022/02/16 06:32:05;;;;;;;;;;;;;;;8.81;59.66;99624.62;4333693;33;19999;-86
2022/02/16 06:34:30;;;;;;;;;;;;;;;8.86;59.66;99631.41;4334100;33;19987;-86
2022/02/16 06:36:55;;;;;;;;;;;;;;;8.84;59.67;99632.34;4321641;33;19991;-87
2022/02/16 06:39:20;;;;;;;;;;;;;;;8.90;59.68;99639.97;4321655;33;20269;-86
2022/02/16 06:41:46;;;;;;;;;;;;;;;8.80;59.66;99638.50;4332993;33;27299;-87
2022/02/16 06:44:11;;;;;;;;;;;;;;;8.70;59.66;99640.47;4321205;33;20034;-87
2022/02/16 06:46:37;;;;;;;;;;;;;;;8.61;59.66;99657.16;4333991;33;19983;-86
2022/02/16 06:49:02;;;;;;;;;;;;;;;8.64;59.66;99652.78;4342950;33;20340;-85
2022/02/16 06:51:27;;;;;;;;;;;;;;;8.76;59.67;99648.13;4329818;33;20316;-87
2022/02/16 06:53:55;;;;;;;;;;;;;;;8.61;59.66;99658.87;4321670;33;20041;-86
2022/02/16 06:56:21;;;;;;;;;;;;;;;8.66;59.66;99648.38;4334144;33;19987;-86
2022/02/16 06:58:46;;;;;;;;;;;;;;;8.66;59.67;99654.44;4333891;33;20347;-86
2022/02/16 07:01:12;;;;;;;;;;;;;;;8.61;59.66;99651.97;4347507;33;20018;-87
2022/02/16 07:03:37;;;;;;;;;;;;;;;8.78;59.67;99658.47;4347415;33;20379;-87
2022/02/16 07:06:02;;;;;;;;;;;;;;;8.85;59.67;99647.88;4346959;33;27247;-87
2022/02/16 07:08:28;;;;;;;;;;;;;;;8.81;59.66;99648.00;4347425;33;20254;-86
2022/02/16 07:10:53;;;;;;;;;;;;;;;8.63;59.66;99646.72;4347257;33;19979;-86
2022/02/16 07:13:18;;;;;;;;;;;;;;;8.80;59.66;99649.75;4345899;33;20011;-86
2022/02/16 07:15:43;;;;;;;;;;;;;;;8.70;59.66;99642.22;4347224;33;19995;-86
2022/02/16 07:18:11;;;;;;;;;;;;;;;8.75;59.67;99633.41;4347142;33;20035;-86
2022/02/16 07:20:36;;;;;;;;;;;;;;;8.79;59.67;99635.06;4321118;33;20019;-86
2022/02/16 07:23:01;;;;;;;;;;;;;;;8.97;59.67;99638.03;4333801;33;20042;-86
2022/02/16 07:25:27;;;;;;;;;;;;;;;8.92;59.67;99641.63;4333489;33;20281;-86
2022/02/16 07:27:52;;;;;;;;;;;;;;;9.01;59.68;99642.28;4321481;33;20005;-86
2022/02/16 07:30:17;;;;;;;;;;;;;;;9.06;59.68;99643.84;4333562;33;19999;-86
2022/02/16 07:32:43;;;;;;;;;;;;;;;8.85;59.67;99645.28;4347354;33;20603;-86
2022/02/16 07:35:09;;;;;;;;;;;;;;;8.88;59.67;99644.34;4333796;33;20007;-85
2022/02/16 07:37:34;;;;;;;;;;;;;;;9.04;59.69;99643.03;4333717;33;19991;-87
2022/02/16 07:39:59;;;;;;;;;;;;;;;8.83;59.67;99651.41;4333708;33;20062;-86
2022/02/16 07:42:27;;;;;;;;;;;;;;;9.08;59.68;99646.41;4347341;33;20001;-87
2022/02/16 07:44:53;;;;;;;;;;;;;;;9.14;59.68;99648.81;4347354;33;19993;-86
2022/02/16 07:47:18;;;;;;;;;;;;;;;9.18;59.68;99653.88;4333398;33;19976;-86
2022/02/16 07:49:43;;;;;;;;;;;;;;;9.24;59.69;99650.28;4322618;33;26697;-86
2022/02/16 07:52:08;;;;;;;;;;;;;;;9.27;59.70;99655.38;4331167;33;20023;-86
2022/02/16 07:54:34;;;;;;;;;;;;;;;9.37;59.70;99656.81;4331153;33;20022;-87
2022/02/16 07:56:59;;;;;;;;;;;;;;;9.45;59.70;99661.78;4331115;33;20428;-87
2022/02/16 07:59:24;;;;;;;;;;;;;;;9.86;59.72;99655.38;4330994;33;19996;-86
2022/02/16 08:01:50;;;;;;;;;;;;;;;9.97;59.74;99647.25;4330985;33;19996;-86
2022/02/16 08:04:18;;;;;;;;;;;;;;;9.86;59.72;99655.38;4330995;33;19992;-87
2022/02/16 08:06:44;;;;;;;;;;;;;;;9.88;59.73;99655.31;4331081;33;19988;-86
2022/02/16 08:09:10;;;;;;;;;;;;;;;9.78;59.72;99645.22;4330864;33;20353;-86
2022/02/16 08:11:38;;;;;;;;;;;;;;;9.80;59.73;99643.41;4332265;33;20043;-86
2022/02/16 08:14:03;;;;;;;;;;;;;;;9.79;59.73;99646.91;4330776;33;19987;-86
2022/02/16 08:16:29;;;;;;;;;;;;;;;9.82;59.72;99651.16;4330921;33;20006;-87
2022/02/16 08:18:54;;;;;;;;;;;;;;;9.64;59.72;99668.16;4330690;33;20007;-86
2022/02/16 08:21:19;;;;;;;;;;;;;;;9.48;59.70;99669.50;4330700;33;20254;-86
2022/02/16 08:23:44;;;;;;;;;;;;;;;9.65;59.72;99675.06;4330176;33;26949;-86
2022/02/16 08:26:09;;;;;;;;;;;;;;;9.64;59.72;99673.34;4330566;33;20002;-86
2022/02/16 08:28:35;;;;;;;;;;;;;;;9.81;59.73;99671.09;4329906;33;31236;-86
2022/02/16 08:31:01;;;;;;;;;;;;;;;9.88;59.72;99666.56;4332113;33;20023;-87
2022/02/16 08:33:26;;;;;;;;;;;;;;;9.97;59.73;99665.47;4331481;33;19980;-87
2022/02/16 08:35:51;;;;;;;;;;;;;;;9.87;59.73;99670.06;4332399;33;20365;-87
2022/02/16 08:38:16;;;;;;;;;;;;;;;9.68;59.72;99674.09;4332092;33;23544;-87
2022/02/16 08:40:42;;;;;;;;;;;;;;;9.59;59.71;99664.84;4332491;33;20278;-87
2022/02/16 08:43:07;;;;;;;;;;;;;;;9.50;59.71;99659.94;4332354;33;19988;-87
2022/02/16 08:45:33;;;;;;;;;;;;;;;9.54;59.71;99670.19;4343971;33;30583;-86
2022/02/16 08:47:58;;;;;;;;;;;;;;;9.65;59.72;99671.59;4333341;33;20006;-87
2022/02/16 08:50:23;;;;;;;;;;;;;;;9.63;59.71;99674.25;4334026;33;28596;-87
2022/02/16 08:52:48;;;;;;;;;;;;;;;9.61;59.71;99676.03;4334790;33;19999;-87
2022/02/16 08:55:13;;;;;;;;;;;;;;;9.77;59.72;99674.72;4346338;32;31303;-86
2022/02/16 08:57:40;;;;;;;;;;;;;;;9.64;59.71;99673.34;4334860;33;20025;-86
2022/02/16 09:00:08;;;;;;;;;;;;;;;9.78;59.72;99659.97;4334976;33;20690;-87
2022/02/16 09:02:33;;;;;;;;;;;;;;;9.67;59.72;99662.00;4334944;33;20083;-86
2022/02/16 09:05:01;;;;;;;;;;;;;;;9.65;59.72;99654.25;4334711;33;19988;-87
2022/02/16 09:07:30;;;;;;;;;;;;;;;9.83;59.72;99650.25;4334995;33;19979;-86
2022/02/16 09:09:55;;;;;;;;;;;;;;;9.54;59.71;99651.16;4335122;33;20054;-87
2022/02/16 09:12:22;;;;;;;;;;;;;;;9.67;59.72;99647.25;4334639;33;20030;-86
2022/02/16 09:14:47;;;;;;;;;;;;;;;9.87;59.72;99638.03;4334786;33;20046;-86
2022/02/16 09:17:13;;;;;;;;;;;;;;;10.12;59.74;99637.19;4334595;33;20015;-86
2022/02/16 09:19:38;;;;;;;;;;;;;;;10.18;59.75;99637.94;4334721;33;20013;-86
2022/02/16 09:22:03;;;;;;;;;;;;;;;10.46;59.75;99638.75;4334678;33;20298;-87
2022/02/16 09:24:29;;;;;;;;;;;;;;;10.63;59.77;99636.41;4334707;33;20381;-87
2022/02/16 09:26:54;;;;;;;;;;;;;;;10.53;59.76;99636.78;4334494;33;20003;-87
2022/02/16 09:29:19;;;;;;;;;;;;;;;10.84;59.79;99633.97;4307582;33;786935;-86
2022/02/16 09:31:45;;;;;;;;;;;;;;;10.67;59.77;99632.81;4330768;33;20000;-87
2022/02/16 09:34:10;;;;;;;;;;;;;;;10.58;59.77;99638.31;4334573;33;19982;-86
2022/02/16 09:36:35;;;;;;;;;;;;;;;10.56;59.77;99640.13;4334530;33;20034;-87
2022/02/16 09:39:01;;;;;;;;;;;;;;;10.76;59.77;99644.66;4346174;33;24671;-86
2022/02/16 09:41:26;;;;;;;;;;;;;;;10.76;59.77;99642.06;4334604;33;20016;-87
2022/02/16 09:43:51;;;;;;;;;;;;;;;10.73;59.77;99644.78;4334112;33;20328;-87
2022/02/16 09:46:16;;;;;;;;;;;;;;;10.54;59.76;99644.53;4334371;33;20015;-87
2022/02/16 09:48:42;;;;;;;;;;;;;;;10.59;59.76;99640.03;4347987;33;20006;-87
2022/02/16 09:51:07;;;;;;;;;;;;;;;10.73;59.77;99634.38;4321750;33;22119;-87
2022/02/16 09:53:32;;;;;;;;;;;;;;;10.85;59.78;99636.53;4334234;33;20262;-87
2022/02/16 09:55:58;;;;;;;;;;;;;;;10.88;59.78;99628.59;4334569;33;20015;-87
2022/02/16 09:58:23;;;;;;;;;;;;;;;10.88;59.78;99625.16;4334800;33;20564;-86
2022/02/16 10:01:01;;;;;;;;;;;;;;;11.00;59.79;99620.37;4334015;33;31910;-87
2022/02/16 10:03:27;;;;;;;;;;;;;;;11.05;59.79;99609.78;4334623;33;20343;-87
2022/02/16 10:05:52;;;;;;;;;;;;;;;11.16;59.80;99615.47;4334352;33;20011;-87
2022/02/16 10:08:37;;;;;;;;;;;;;;;11.13;59.79;99614.72;4334333;33;20361;-87
2022/02/16 10:11:02;;;;;;;;;;;;;;;11.29;59.80;99613.25;4321720;33;20808;-87
2022/02/16 10:13:28;;;;;;;;;;;;;;;11.55;59.82;99601.84;4334380;33;20030;-86
2022/02/16 10:15:53;;;;;;;;;;;;;;;11.66;59.83;99604.91;4334205;33;20018;-86
2022/02/16 10:18:18;;;;;;;;;;;;;;;11.73;59.83;99611.56;4333689;33;27857;-86
2022/02/16 10:20:43;;;;;;;;;;;;;;;11.70;59.83;99609.06;4334079;33;19979;-86
2022/02/16 10:23:09;;;;;;;;;;;;;;;11.80;59.83;99604.37;4334181;33;20009;-87
2022/02/16 10:25:34;;;;;;;;;;;;;;;12.03;59.85;99593.03;4334221;33;19992;-87
2022/02/16 10:28:03;;;;;;;;;;;;;;;12.04;59.84;99594.72;4346447;33;20014;-87
2022/02/16 10:30:28;;;;;;;;;;;;;;;12.11;59.85;99585.75;4347778;33;19976;-86
2022/02/16 10:32:53;;;;;;;;;;;;;;;12.03;59.84;99582.59;4334128;33;19999;-87
2022/02/16 10:35:30;;;;;;;;;;;;;;;12.26;59.85;99582.50;4333658;33;23903;-87
2022/02/16 10:37:55;;;;;;;;;;;;;;;12.40;59.86;99579.31;4334331;33;19995;-87
2022/02/16 10:40:22;;;;;;;;;;;;;;;12.72;59.88;99568.34;4334193;33;20001;-86
2022/02/16 10:42:53;;;;;;;;;;;;;;;12.82;59.89;99566.19;4334427;33;19991;-87
2022/02/16 10:45:21;;;;;;;;;;;;;;;12.71;59.88;99552.75;4347799;33;19991;-86
2022/02/16 10:47:50;;;;;;;;;;;;;;;12.73;59.89;99543.91;4334091;33;20113;-87
2022/02/16 10:50:15;;;;;;;;;;;;;;;12.92;59.89;99538.72;4347470;33;20499;-86
2022/02/16 10:52:47;;;;;;;;;;;;;;;12.86;59.89;99544.25;4347725;33;20373;-86
2022/02/16 10:55:13;;;;;;;;;;;;;;;12.90;59.90;99533.56;4333719;33;19991;-86
2022/02/16 10:57:38;;;;;;;;;;;;;;;13.07;59.90;99532.81;4347557;33;20013;-87
2022/02/16 11:00:03;;;;;;;;;;;;;;;13.18;59.90;99521.91;4347057;32;29666;-86
2022/02/16 11:02:28;;;;;;;;;;;;;;;13.13;59.91;99516.84;4333910;33;19991;-87
2022/02/16 11:04:54;;;;;;;;;;;;;;;13.17;59.90;99512.31;4333474;33;20669;-87
2022/02/16 11:07:19;;;;;;;;;;;;;;;13.24;59.91;99510.31;4347082;33;23190;-87
2022/02/16 11:09:44;;;;;;;;;;;;;;;13.28;59.92;99499.66;4333825;33;19983;-86
2022/02/16 11:12:09;;;;;;;;;;;;;;;13.26;59.91;99503.25;4333495;33;20015;-86
2022/02/16 11:14:35;;;;;;;;;;;;;;;13.36;59.92;99491.44;4347356;33;20004;-86
2022/02/16 11:17:00;;;;;;;;;;;;;;;13.19;59.92;99500.91;4347493;33;19975;-86
2022/02/16 11:19:32;;;;;;;;;;;;;;;13.14;59.91;99486.34;4321754;33;19983;-87
2022/02/16 11:24:45;;;;;;;;;;;;;;;13.38;59.92;99481.75;4347591;33;20361;-87
2022/02/16 11:27:29;;;;;;;;;;;;;;;13.62;59.93;99480.56;4347574;33;20475;-87
2022/02/16 11:29:58;;;;;;;;;;;;;;;13.48;59.92;99485.63;4347738;33;19979;-88
2022/02/16 11:32:26;;;;;;;;;;;;;;;13.75;59.94;99484.31;4347667;33;19993;-87
2022/02/16 11:35:11;;;;;;;;;;;;;;;13.96;59.95;99478.91;4347365;33;20007;-87
2022/02/16 11:37:38;;;;;;;;;;;;;;;14.16;59.96;99491.84;4333743;33;20005;-87
2022/02/16 11:40:03;;;;;;;;;;;;;;;14.29;59.97;99489.44;4347391;33;19996;-87
2022/02/16 11:42:40;;;;;;;;;;;;;;;14.41;59.98;99484.41;4347446;33;19991;-87
2022/02/16 11:45:06;;;;;;;;;;;;;;;14.61;59.98;99480.78;4333729;33;19984;-87
2022/02/16 11:47:34;;;;;;;;;;;;;;;14.60;59.99;99473.00;4333659;33;20356;-87
2022/02/16 11:50:00;;;;;;;;;;;;;;;14.66;59.99;99468.28;4347176;33;19972;-87
2022/02/16 11:52:35;;;;;;;;;;;;;;;14.82;59.99;99462.25;4347224;33;19994;-87
2022/02/16 11:55:00;;;;;;;;;;;;;;;15.07;60.01;99472.22;4333991;33;19991;-88
2022/02/16 11:57:29;;;;;;;;;;;;;;;14.90;60.00;99462.66;4345842;33;20053;-86
2022/02/16 11:59:54;;;;;;;;;;;;;;;14.81;59.99;99466.63;4347175;33;20002;-86
2022/02/16 12:02:20;;;;;;;;;;;;;;;14.72;60.00;99456.66;4333510;33;19999;-86
2022/02/16 12:04:49;;;;;;;;;;;;;;;14.66;59.99;99449.09;4333098;33;20298;-86
2022/02/16 12:07:27;;;;;;;;;;;;;;;14.41;59.98;99446.91;4333623;33;20059;-87
2022/02/16 12:10:11;;;;;;;;;;;;;;;14.57;59.98;99453.06;4333411;33;19983;-86
2022/02/16 12:12:36;;;;;;;;;;;;;;;14.80;60.00;99441.34;4347009;33;20783;-87
2022/02/16 12:15:02;;;;;;;;;;;;;;;14.76;59.99;99442.47;4346466;33;28193;-86
2022/02/16 12:17:27;;;;;;;;;;;;;;;15.04;60.01;99432.16;4333435;33;20003;-87
2022/02/16 12:19:52;;;;;;;;;;;;;;;14.93;60.00;99420.59;4333287;33;20270;-87
2022/02/16 12:22:21;;;;;;;;;;;;;;;14.73;60.00;99419.91;4332409;33;36173;-87
2022/02/16 12:24:46;;;;;;;;;;;;;;;14.66;59.99;99423.75;4333281;33;20006;-87
2022/02/16 12:27:13;;;;;;;;;;;;;;;14.66;59.99;99410.66;4346779;33;20027;-87
2022/02/16 12:29:39;;;;;;;;;;;;;;;14.80;60.00;99407.28;4346856;33;20029;-87
2022/02/16 12:32:04;;;;;;;;;;;;;;;14.90;60.00;99413.72;4333013;33;20064;-86
2022/02/16 12:34:30;;;;;;;;;;;;;;;15.04;60.01;99400.69;4333109;33;20277;-87
2022/02/16 12:36:55;;;;;;;;;;;;;;;14.97;60.00;99398.50;4345435;33;20050;-87
2022/02/16 12:39:21;;;;;;;;;;;;;;;14.72;60.00;99405.09;4346630;33;20043;-87
2022/02/16 12:41:46;;;;;;;;;;;;;;;14.55;59.98;99394.69;4332790;33;20054;-87
2022/02/16 12:44:13;;;;;;;;;;;;;;;14.56;59.99;99392.91;4346584;33;20051;-87
2022/02/16 12:46:43;;;;;;;;;;;;;;;14.51;59.98;99389.69;4346519;33;20034;-86
2022/02/16 12:49:09;;;;;;;;;;;;;;;14.61;59.99;99375.16;4346343;33;20101;-87
2022/02/16 12:51:34;;;;;;;;;;;;;;;14.87;60.01;99392.06;4346405;33;20422;-87